MAS604 WSSS-WMKK
Flight info
| Callsign | MAS604 |
|---|---|
| Flight time | 0h 33m |
| Altitude | 24000 |
| Route | MASBO A457 GUPTA |
| Aircraft | B738/M-SDE1E2E3FGHIJ3J4J5M1RUVWXYZ/LB1D1 |
Departure
| Time | 2026-05-05 16:41 |
|---|---|
| Airport | Singapore Changi Airport (WSSS) |
Arrival
| Time | 2026-05-05 17:14 |
|---|---|
| Airport | Kuala Lumpur International Airport (WMKK) |
| Time | Latitude | Longitude | Altitude | Speed | Heading |
|---|---|---|---|---|---|
| 2026-05-05 16:12 | 1.35114 | 103.98828 | 23 ft | 0 kts | 290° |
| 2026-05-05 16:30 | 1.35110 | 103.98839 | 26 ft | 2 kts | 290° |
| 2026-05-05 16:30 | 1.35104 | 103.98854 | 26 ft | 2 kts | 290° |
| 2026-05-05 16:31 | 1.35099 | 103.98870 | 27 ft | 2 kts | 289° |
| 2026-05-05 16:31 | 1.35095 | 103.98886 | 26 ft | 2 kts | 256° |
| 2026-05-05 16:31 | 1.35101 | 103.98896 | 28 ft | 1 kts | 201° |
| 2026-05-05 16:31 | 1.35105 | 103.98898 | 25 ft | 0 kts | 197° |
| 2026-05-05 16:35 | 1.35089 | 103.98893 | 25 ft | 5 kts | 198° |
| 2026-05-05 16:35 | 1.35040 | 103.98880 | 23 ft | 9 kts | 189° |
| 2026-05-05 16:35 | 1.34961 | 103.98880 | 24 ft | 13 kts | 169° |
| 2026-05-05 16:35 | 1.34905 | 103.98945 | 22 ft | 13 kts | 112° |
| 2026-05-05 16:36 | 1.34860 | 103.99019 | 21 ft | 13 kts | 151° |
| 2026-05-05 16:36 | 1.34778 | 103.99004 | 21 ft | 12 kts | 204° |
| 2026-05-05 16:36 | 1.34700 | 103.98972 | 23 ft | 12 kts | 202° |
| 2026-05-05 16:36 | 1.34624 | 103.98939 | 22 ft | 12 kts | 204° |
| 2026-05-05 16:37 | 1.34541 | 103.98904 | 22 ft | 14 kts | 202° |
| 2026-05-05 16:37 | 1.34446 | 103.98864 | 24 ft | 16 kts | 202° |
| 2026-05-05 16:37 | 1.34341 | 103.98820 | 24 ft | 17 kts | 204° |
| 2026-05-05 16:37 | 1.34226 | 103.98771 | 24 ft | 19 kts | 203° |
| 2026-05-05 16:38 | 1.34102 | 103.98718 | 23 ft | 20 kts | 203° |
| 2026-05-05 16:38 | 1.33969 | 103.98661 | 24 ft | 21 kts | 203° |
| 2026-05-05 16:38 | 1.33831 | 103.98603 | 21 ft | 21 kts | 203° |
| 2026-05-05 16:38 | 1.33707 | 103.98551 | 21 ft | 17 kts | 203° |
| 2026-05-05 16:39 | 1.33617 | 103.98590 | 21 ft | 17 kts | 115° |
| 2026-05-05 16:39 | 1.33576 | 103.98685 | 20 ft | 4 kts | 112° |
| 2026-05-05 16:39 | 1.33565 | 103.98713 | 20 ft | 5 kts | 112° |
| 2026-05-05 16:39 | 1.33549 | 103.98752 | 18 ft | 8 kts | 112° |
| 2026-05-05 16:40 | 1.33556 | 103.98782 | 18 ft | 8 kts | 45° |
| 2026-05-05 16:40 | 1.33666 | 103.98832 | 19 ft | 40 kts | 23° |
| 2026-05-05 16:40 | 1.34148 | 103.99033 | 25 ft | 108 kts | 23° |
| 2026-05-05 16:40 | 1.35026 | 103.99396 | 35 ft | 161 kts | 22° |
| 2026-05-05 16:41 | 1.36097 | 103.99854 | 546 ft | 170 kts | 24° |
| 2026-05-05 16:41 | 1.36810 | 104.00167 | 1019 ft | 169 kts | 25° |
| 2026-05-05 16:41 | 1.38354 | 104.00861 | 1621 ft | 201 kts | 24° |
| 2026-05-05 16:41 | 1.39241 | 104.01240 | 1804 ft | 218 kts | 24° |
| 2026-05-05 16:42 | 1.41246 | 104.02084 | 2001 ft | 254 kts | 23° |
| 2026-05-05 16:42 | 1.42372 | 104.02544 | 2322 ft | 263 kts | 22° |
| 2026-05-05 16:42 | 1.44662 | 104.03486 | 3363 ft | 267 kts | 23° |
| 2026-05-05 16:42 | 1.45800 | 104.03960 | 3902 ft | 268 kts | 23° |
| 2026-05-05 16:43 | 1.47531 | 104.04680 | 4679 ft | 271 kts | 20° |
| 2026-05-05 16:43 | 1.49397 | 104.04964 | 5399 ft | 276 kts | 354° |
| 2026-05-05 16:43 | 1.51234 | 104.04418 | 6166 ft | 278 kts | 334° |
| 2026-05-05 16:43 | 1.52957 | 104.03519 | 6856 ft | 282 kts | 331° |
| 2026-05-05 16:44 | 1.54685 | 104.02564 | 7531 ft | 286 kts | 331° |
| 2026-05-05 16:44 | 1.56435 | 104.01593 | 8220 ft | 290 kts | 331° |
| 2026-05-05 16:44 | 1.58111 | 104.00464 | 8872 ft | 295 kts | 312° |
| 2026-05-05 16:44 | 1.59144 | 103.98701 | 9561 ft | 297 kts | 292° |
| 2026-05-05 16:45 | 1.59922 | 103.96779 | 10204 ft | 301 kts | 291° |
| 2026-05-05 16:45 | 1.60708 | 103.94763 | 10419 ft | 323 kts | 291° |
| 2026-05-05 16:45 | 1.61555 | 103.92610 | 10573 ft | 343 kts | 291° |
| 2026-05-05 16:45 | 1.62463 | 103.90335 | 10767 ft | 360 kts | 292° |
| 2026-05-05 16:46 | 1.63410 | 103.87986 | 11213 ft | 367 kts | 292° |
| 2026-05-05 16:46 | 1.64376 | 103.85614 | 11795 ft | 370 kts | 292° |
| 2026-05-05 16:46 | 1.65356 | 103.83221 | 12387 ft | 374 kts | 292° |
| 2026-05-05 16:46 | 1.66345 | 103.80804 | 12965 ft | 377 kts | 292° |
| 2026-05-05 16:47 | 1.67346 | 103.78367 | 13549 ft | 381 kts | 292° |
| 2026-05-05 16:47 | 1.68362 | 103.75903 | 14086 ft | 385 kts | 292° |
| 2026-05-05 16:47 | 1.69388 | 103.73419 | 14648 ft | 388 kts | 293° |
| 2026-05-05 16:47 | 1.70423 | 103.70917 | 15206 ft | 391 kts | 293° |
| 2026-05-05 16:48 | 1.71465 | 103.68402 | 15779 ft | 393 kts | 293° |
| 2026-05-05 16:48 | 1.72519 | 103.65867 | 16329 ft | 396 kts | 293° |
| 2026-05-05 16:48 | 1.73582 | 103.63314 | 16858 ft | 400 kts | 293° |
| 2026-05-05 16:48 | 1.74653 | 103.60736 | 17384 ft | 403 kts | 293° |
| 2026-05-05 16:49 | 1.75727 | 103.58139 | 17893 ft | 406 kts | 293° |
| 2026-05-05 16:49 | 1.76810 | 103.55519 | 18364 ft | 409 kts | 293° |
| 2026-05-05 16:49 | 1.77900 | 103.52880 | 18796 ft | 412 kts | 293° |
| 2026-05-05 16:49 | 1.78998 | 103.50224 | 19212 ft | 415 kts | 293° |
| 2026-05-05 16:50 | 1.80101 | 103.47552 | 19647 ft | 417 kts | 293° |
| 2026-05-05 16:50 | 1.81209 | 103.44863 | 20054 ft | 420 kts | 293° |
| 2026-05-05 16:50 | 1.82326 | 103.42152 | 20464 ft | 423 kts | 292° |
| 2026-05-05 16:50 | 1.83450 | 103.39426 | 20868 ft | 425 kts | 293° |
| 2026-05-05 16:51 | 1.84581 | 103.36684 | 21262 ft | 428 kts | 293° |
| 2026-05-05 16:51 | 1.85721 | 103.33924 | 21650 ft | 431 kts | 293° |
| 2026-05-05 16:51 | 1.86867 | 103.31150 | 22022 ft | 434 kts | 293° |
| 2026-05-05 16:51 | 1.88022 | 103.28356 | 22402 ft | 436 kts | 293° |
| 2026-05-05 16:52 | 1.89182 | 103.25549 | 22782 ft | 437 kts | 293° |
| 2026-05-05 16:52 | 1.90346 | 103.22735 | 23162 ft | 439 kts | 293° |
| 2026-05-05 16:52 | 1.91514 | 103.19908 | 23456 ft | 442 kts | 293° |
| 2026-05-05 16:52 | 1.92693 | 103.17055 | 23682 ft | 446 kts | 293° |
| 2026-05-05 16:53 | 1.93881 | 103.14183 | 23874 ft | 448 kts | 293° |
| 2026-05-05 16:53 | 1.95074 | 103.11295 | 23879 ft | 451 kts | 293° |
| 2026-05-05 16:53 | 1.96267 | 103.08407 | 23884 ft | 448 kts | 293° |
| 2026-05-05 16:53 | 1.97456 | 103.05527 | 23891 ft | 448 kts | 293° |
| 2026-05-05 16:54 | 1.98647 | 103.02645 | 23902 ft | 448 kts | 293° |
| 2026-05-05 16:54 | 1.99838 | 102.99762 | 23899 ft | 449 kts | 293° |
| 2026-05-05 16:54 | 2.01030 | 102.96875 | 23896 ft | 449 kts | 293° |
| 2026-05-05 16:54 | 2.02221 | 102.93992 | 23894 ft | 449 kts | 293° |
| 2026-05-05 16:55 | 2.03414 | 102.91105 | 23898 ft | 449 kts | 293° |
| 2026-05-05 16:55 | 2.04610 | 102.88216 | 23901 ft | 449 kts | 294° |
| 2026-05-05 16:55 | 2.05897 | 102.85368 | 23897 ft | 449 kts | 296° |
| 2026-05-05 16:55 | 2.07268 | 102.82568 | 23893 ft | 449 kts | 297° |
| 2026-05-05 16:56 | 2.08668 | 102.79776 | 23900 ft | 449 kts | 297° |
| 2026-05-05 16:56 | 2.10063 | 102.76985 | 23890 ft | 449 kts | 297° |
| 2026-05-05 16:56 | 2.11426 | 102.74226 | 23898 ft | 449 kts | 297° |
| 2026-05-05 16:56 | 2.12814 | 102.71388 | 23897 ft | 449 kts | 296° |
| 2026-05-05 16:57 | 2.14181 | 102.68583 | 23897 ft | 449 kts | 296° |
| 2026-05-05 16:57 | 2.15641 | 102.65839 | 23876 ft | 443 kts | 306° |
| 2026-05-05 16:57 | 2.17671 | 102.63615 | 23764 ft | 427 kts | 322° |
| 2026-05-05 16:57 | 2.20175 | 102.62041 | 23066 ft | 427 kts | 334° |
| 2026-05-05 16:58 | 2.22846 | 102.60707 | 22202 ft | 431 kts | 335° |
| 2026-05-05 16:58 | 2.25504 | 102.59409 | 21569 ft | 430 kts | 335° |
| 2026-05-05 16:58 | 2.28173 | 102.58097 | 21061 ft | 425 kts | 335° |
| 2026-05-05 16:58 | 2.30842 | 102.56766 | 20567 ft | 421 kts | 334° |
| 2026-05-05 16:59 | 2.33409 | 102.55471 | 20057 ft | 417 kts | 334° |
| 2026-05-05 16:59 | 2.35988 | 102.54160 | 19524 ft | 415 kts | 334° |
| 2026-05-05 16:59 | 2.38551 | 102.52853 | 19017 ft | 412 kts | 334° |
| 2026-05-05 16:59 | 2.41091 | 102.51556 | 18535 ft | 409 kts | 334° |
| 2026-05-05 17:00 | 2.43615 | 102.50269 | 18036 ft | 406 kts | 334° |
| 2026-05-05 17:00 | 2.46121 | 102.48991 | 17493 ft | 403 kts | 334° |
| 2026-05-05 17:00 | 2.48607 | 102.47724 | 16978 ft | 399 kts | 334° |
| 2026-05-05 17:00 | 2.51037 | 102.46404 | 16457 ft | 397 kts | 326° |
| 2026-05-05 17:01 | 2.53050 | 102.44532 | 15940 ft | 395 kts | 312° |
| 2026-05-05 17:01 | 2.54800 | 102.42428 | 15453 ft | 392 kts | 304° |
| 2026-05-05 17:01 | 2.55894 | 102.39945 | 14950 ft | 391 kts | 284° |
| 2026-05-05 17:01 | 2.56266 | 102.37292 | 14417 ft | 381 kts | 270° |
| 2026-05-05 17:02 | 2.56129 | 102.34663 | 13649 ft | 378 kts | 265° |
| 2026-05-05 17:02 | 2.55892 | 102.32050 | 12796 ft | 375 kts | 264° |
| 2026-05-05 17:02 | 2.55643 | 102.29469 | 12034 ft | 370 kts | 264° |
| 2026-05-05 17:02 | 2.55404 | 102.26927 | 11314 ft | 365 kts | 264° |
| 2026-05-05 17:03 | 2.55180 | 102.24418 | 10642 ft | 359 kts | 265° |
| 2026-05-05 17:03 | 2.54968 | 102.21959 | 10072 ft | 351 kts | 265° |
| 2026-05-05 17:03 | 2.54771 | 102.19587 | 9913 ft | 330 kts | 265° |
| 2026-05-05 17:03 | 2.54593 | 102.17376 | 9852 ft | 309 kts | 265° |
| 2026-05-05 17:04 | 2.54424 | 102.15291 | 9732 ft | 292 kts | 265° |
| 2026-05-05 17:04 | 2.54262 | 102.13307 | 9440 ft | 283 kts | 265° |
| 2026-05-05 17:04 | 2.54099 | 102.11347 | 8934 ft | 283 kts | 265° |
| 2026-05-05 17:04 | 2.53936 | 102.09390 | 8469 ft | 281 kts | 265° |
| 2026-05-05 17:05 | 2.53776 | 102.07449 | 8043 ft | 279 kts | 265° |
| 2026-05-05 17:05 | 2.53616 | 102.05521 | 7612 ft | 277 kts | 265° |
| 2026-05-05 17:05 | 2.53459 | 102.03609 | 7182 ft | 275 kts | 266° |
| 2026-05-05 17:05 | 2.53304 | 102.01718 | 6766 ft | 270 kts | 266° |
| 2026-05-05 17:06 | 2.53151 | 101.99854 | 6152 ft | 269 kts | 266° |
| 2026-05-05 17:06 | 2.52998 | 101.97999 | 5482 ft | 267 kts | 265° |
| 2026-05-05 17:06 | 2.52462 | 101.96249 | 4843 ft | 262 kts | 239° |
| 2026-05-05 17:06 | 2.51486 | 101.94798 | 4661 ft | 241 kts | 235° |
| 2026-05-05 17:07 | 2.50575 | 101.93474 | 4510 ft | 222 kts | 235° |
| 2026-05-05 17:07 | 2.49740 | 101.92251 | 4381 ft | 205 kts | 235° |
| 2026-05-05 17:07 | 2.48964 | 101.91112 | 4302 ft | 192 kts | 235° |
| 2026-05-05 17:07 | 2.48217 | 101.90010 | 4320 ft | 197 kts | 237° |
| 2026-05-05 17:08 | 2.47828 | 101.88680 | 4308 ft | 206 kts | 278° |
| 2026-05-05 17:08 | 2.48470 | 101.87441 | 4326 ft | 205 kts | 319° |
| 2026-05-05 17:08 | 2.49600 | 101.86568 | 4354 ft | 206 kts | 324° |
| 2026-05-05 17:08 | 2.50767 | 101.85719 | 4359 ft | 209 kts | 326° |
| 2026-05-05 17:09 | 2.51956 | 101.84894 | 4328 ft | 207 kts | 326° |
| 2026-05-05 17:09 | 2.53154 | 101.84079 | 4094 ft | 208 kts | 327° |
| 2026-05-05 17:09 | 2.54343 | 101.83276 | 3836 ft | 204 kts | 327° |
| 2026-05-05 17:09 | 2.55507 | 101.82490 | 3580 ft | 200 kts | 327° |
| 2026-05-05 17:10 | 2.56639 | 101.81726 | 3331 ft | 193 kts | 327° |
| 2026-05-05 17:10 | 2.57728 | 101.80990 | 3082 ft | 185 kts | 327° |
| 2026-05-05 17:10 | 2.58767 | 101.80288 | 2855 ft | 176 kts | 327° |
| 2026-05-05 17:10 | 2.59768 | 101.79612 | 2643 ft | 171 kts | 327° |
| 2026-05-05 17:11 | 2.60756 | 101.78944 | 2456 ft | 173 kts | 327° |
| 2026-05-05 17:11 | 2.61762 | 101.78265 | 2220 ft | 175 kts | 326° |
| 2026-05-05 17:11 | 2.62763 | 101.77589 | 1983 ft | 171 kts | 326° |
| 2026-05-05 17:11 | 2.63723 | 101.76942 | 1797 ft | 163 kts | 327° |
| 2026-05-05 17:12 | 2.64660 | 101.76313 | 1561 ft | 161 kts | 327° |
| 2026-05-05 17:12 | 2.65577 | 101.75692 | 1355 ft | 159 kts | 327° |
| 2026-05-05 17:12 | 2.66488 | 101.75075 | 1157 ft | 158 kts | 327° |
| 2026-05-05 17:12 | 2.67395 | 101.74463 | 962 ft | 157 kts | 327° |
| 2026-05-05 17:13 | 2.68297 | 101.73854 | 774 ft | 156 kts | 327° |
| 2026-05-05 17:13 | 2.69195 | 101.73247 | 596 ft | 156 kts | 327° |
| 2026-05-05 17:13 | 2.70098 | 101.72639 | 426 ft | 153 kts | 327° |
| 2026-05-05 17:13 | 2.70986 | 101.72051 | 209 ft | 155 kts | 326° |
| 2026-05-05 17:14 | 2.71866 | 101.71444 | 59 ft | 148 kts | 326° |
| 2026-05-05 17:14 | 2.72545 | 101.70990 | 59 ft | 86 kts | 326° |
| 2026-05-05 17:14 | 2.72873 | 101.70771 | 64 ft | 33 kts | 329° |
| 2026-05-05 17:14 | 2.73080 | 101.70698 | 62 ft | 30 kts | 353° |
| 2026-05-05 17:15 | 2.73244 | 101.70689 | 69 ft | 21 kts | 357° |
| 2026-05-05 17:15 | 2.73379 | 101.70662 | 65 ft | 20 kts | 326° |
| 2026-05-05 17:15 | 2.73464 | 101.70605 | 70 ft | 13 kts | 326° |
| 2026-05-05 17:15 | 2.73539 | 101.70555 | 66 ft | 13 kts | 327° |
| 2026-05-05 17:16 | 2.73611 | 101.70505 | 70 ft | 12 kts | 324° |
| 2026-05-05 17:16 | 2.73682 | 101.70456 | 67 ft | 12 kts | 330° |
| 2026-05-05 17:16 | 2.73760 | 101.70406 | 70 ft | 15 kts | 326° |
| 2026-05-05 17:16 | 2.73856 | 101.70342 | 70 ft | 19 kts | 326° |
| 2026-05-05 17:17 | 2.73972 | 101.70263 | 68 ft | 21 kts | 326° |
| 2026-05-05 17:17 | 2.74090 | 101.70183 | 65 ft | 20 kts | 326° |
| 2026-05-05 17:17 | 2.74205 | 101.70106 | 71 ft | 20 kts | 326° |
| 2026-05-05 17:17 | 2.74317 | 101.70032 | 64 ft | 19 kts | 326° |
| 2026-05-05 17:18 | 2.74426 | 101.69962 | 71 ft | 18 kts | 334° |
| 2026-05-05 17:18 | 2.74523 | 101.70016 | 68 ft | 18 kts | 57° |
| 2026-05-05 17:18 | 2.74590 | 101.70117 | 69 ft | 17 kts | 55° |
| 2026-05-05 17:18 | 2.74680 | 101.70168 | 70 ft | 16 kts | 335° |
| 2026-05-05 17:19 | 2.74775 | 101.70107 | 72 ft | 16 kts | 327° |
| 2026-05-05 17:19 | 2.74866 | 101.70048 | 67 ft | 15 kts | 326° |
| 2026-05-05 17:19 | 2.74952 | 101.69991 | 72 ft | 14 kts | 327° |
| 2026-05-05 17:19 | 2.75031 | 101.70014 | 67 ft | 14 kts | 55° |
| 2026-05-05 17:20 | 2.75083 | 101.70091 | 68 ft | 13 kts | 55° |
| 2026-05-05 17:20 | 2.75125 | 101.70157 | 69 ft | 8 kts | 70° |
| 2026-05-05 17:20 | 2.75123 | 101.70172 | 70 ft | 1 kts | 123° |
| 2026-05-05 17:20 | 2.75117 | 101.70177 | 70 ft | 1 kts | 136° |
| 2026-05-05 17:21 | 2.75109 | 101.70184 | 68 ft | 3 kts | 142° |
| 2026-05-05 17:21 | 2.75102 | 101.70189 | 70 ft | 0 kts | 144° |